Time;durP1;ratioP1;P1;durP2;ratioP2;P2;SDS_P1;SDS_P2;PMS_P1;PMS_P2;Temp;Humidity;BMP_temperature;BMP_pressure;BME280_temperature;BME280_humidity;BME280_pressure;Samples;Min_cycle;Max_cycle;Signal;HPM_P1;HPM_P2
2023/08/12 00:00:23;;;;;;;9.23;3.83;;;;;;;;;;5033000;28;20028;-76
2023/08/12 00:02:49;;;;;;;8.80;3.60;;;;;;;;;;5032952;28;20479;-76
2023/08/12 00:05:15;;;;;;;7.60;3.33;;;;;;;;;;5032949;28;20025;-76
2023/08/12 00:07:42;;;;;;;7.13;2.90;;;;;;;;;;5032918;28;20033;-76
2023/08/12 00:10:08;;;;;;;7.47;3.38;;;;;;;;;;5032923;28;20052;-76
2023/08/12 00:12:35;;;;;;;6.05;3.20;;;;;;;;;;5032839;28;20021;-77
2023/08/12 00:15:01;;;;;;;6.47;3.10;;;;;;;;;;5032802;28;20021;-77
2023/08/12 00:17:27;;;;;;;7.47;3.25;;;;;;;;;;5032696;28;20045;-77
2023/08/12 00:19:53;;;;;;;6.10;3.10;;;;;;;;;;5032729;28;20522;-77
2023/08/12 00:22:19;;;;;;;5.60;2.80;;;;;;;;;;5032640;28;20038;-77
2023/08/12 00:24:45;;;;;;;6.60;3.97;;;;;;;;;;5032631;28;20028;-76
2023/08/12 00:27:11;;;;;;;6.93;3.92;;;;;;;;;;5031325;28;20049;-76
2023/08/12 00:29:37;;;;;;;7.03;3.78;;;;;;;;;;5031699;28;20122;-76
2023/08/12 00:32:04;;;;;;;8.20;4.00;;;;;;;;;;5032501;28;20034;-76
2023/08/12 00:34:30;;;;;;;8.20;3.88;;;;;;;;;;5032590;28;20480;-76
2023/08/12 00:36:56;;;;;;;9.07;3.72;;;;;;;;;;5032544;28;20056;-76
2023/08/12 00:39:22;;;;;;;10.52;3.92;;;;;;;;;;5032459;28;20025;-76
2023/08/12 00:41:48;;;;;;;8.43;3.40;;;;;;;;;;5032349;28;20102;-76
2023/08/12 00:44:14;;;;;;;6.93;3.80;;;;;;;;;;5032324;28;20567;-76
2023/08/12 00:46:41;;;;;;;6.13;3.20;;;;;;;;;;5032390;28;20488;-76
2023/08/12 00:49:08;;;;;;;7.60;3.20;;;;;;;;;;5032379;28;20017;-76
2023/08/12 00:51:35;;;;;;;6.93;3.35;;;;;;;;;;5032223;28;20532;-76
2023/08/12 00:54:03;;;;;;;8.13;3.90;;;;;;;;;;5030979;28;20472;-76
2023/08/12 00:56:29;;;;;;;9.38;4.03;;;;;;;;;;5032249;28;20753;-76
2023/08/12 00:58:55;;;;;;;6.00;3.47;;;;;;;;;;5032311;28;20053;-76
2023/08/12 01:01:21;;;;;;;9.18;4.18;;;;;;;;;;5032200;28;20025;-76
2023/08/12 01:03:47;;;;;;;8.77;4.18;;;;;;;;;;5032232;28;20036;-76
2023/08/12 01:06:14;;;;;;;5.72;3.45;;;;;;;;;;5032452;28;20471;-76
2023/08/12 01:08:40;;;;;;;9.50;4.40;;;;;;;;;;5032398;28;20018;-77
2023/08/12 01:11:26;;;;;;;9.02;4.03;;;;;;;;;;5032268;28;20034;-76
2023/08/12 01:14:10;;;;;;;8.18;3.83;;;;;;;;;;5032147;28;20022;-76
2023/08/12 01:16:39;;;;;;;5.93;3.22;;;;;;;;;;5031471;28;20026;-76
2023/08/12 01:19:06;;;;;;;12.35;3.97;;;;;;;;;;5031779;28;20053;-76
2023/08/12 01:21:32;;;;;;;9.52;4.28;;;;;;;;;;5031873;28;20032;-76
2023/08/12 01:23:58;;;;;;;7.07;4.22;;;;;;;;;;5032022;28;20121;-76
2023/08/12 01:26:24;;;;;;;7.65;4.63;;;;;;;;;;5031968;28;20092;-76
2023/08/12 01:28:50;;;;;;;9.90;4.20;;;;;;;;;;5031017;28;20049;-76
2023/08/12 01:31:22;;;;;;;8.55;4.90;;;;;;;;;;5032021;28;20025;-76
2023/08/12 01:34:08;;;;;;;12.43;4.40;;;;;;;;;;5031970;28;20030;-76
2023/08/12 01:36:36;;;;;;;6.75;4.38;;;;;;;;;;5034847;28;20033;-76
2023/08/12 01:39:04;;;;;;;9.13;4.90;;;;;;;;;;5035687;28;20025;-76
2023/08/12 01:41:30;;;;;;;8.65;4.95;;;;;;;;;;5035771;28;20029;-76
2023/08/12 01:43:56;;;;;;;9.50;4.60;;;;;;;;;;5035618;28;20100;-76
2023/08/12 01:46:22;;;;;;;9.57;4.70;;;;;;;;;;5035486;28;20105;-76
2023/08/12 01:48:48;;;;;;;7.65;4.75;;;;;;;;;;5035862;28;20105;-76
2023/08/12 01:51:14;;;;;;;9.25;4.88;;;;;;;;;;5035492;28;20155;-76
2023/08/12 01:53:40;;;;;;;8.48;5.45;;;;;;;;;;5035319;28;20513;-76
2023/08/12 01:56:07;;;;;;;11.73;5.40;;;;;;;;;;5035318;28;20108;-76
2023/08/12 01:58:33;;;;;;;9.10;4.97;;;;;;;;;;5035420;28;20052;-76
2023/08/12 02:00:59;;;;;;;10.10;5.40;;;;;;;;;;5035352;28;20095;-76
2023/08/12 02:03:25;;;;;;;10.82;5.30;;;;;;;;;;5035190;28;20033;-76
2023/08/12 02:05:51;;;;;;;9.23;5.25;;;;;;;;;;5035275;28;20029;-76
2023/08/12 02:08:17;;;;;;;9.70;6.30;;;;;;;;;;5035162;28;20155;-76
2023/08/12 02:10:43;;;;;;;9.23;5.25;;;;;;;;;;5035063;28;20075;-76
2023/08/12 02:13:09;;;;;;;11.00;5.13;;;;;;;;;;5035350;28;20108;-76
2023/08/12 02:15:35;;;;;;;10.43;5.60;;;;;;;;;;5034998;28;20111;-77
2023/08/12 02:18:01;;;;;;;9.18;5.45;;;;;;;;;;5035234;28;20026;-77
2023/08/12 02:20:27;;;;;;;8.77;5.40;;;;;;;;;;5035158;28;20369;-76
2023/08/12 02:22:53;;;;;;;8.35;4.78;;;;;;;;;;5034888;28;20041;-76
2023/08/12 02:25:19;;;;;;;11.23;6.03;;;;;;;;;;5033646;28;20033;-76
2023/08/12 02:27:45;;;;;;;10.55;5.00;;;;;;;;;;5034527;28;20746;-77
2023/08/12 02:30:11;;;;;;;9.77;5.43;;;;;;;;;;5034775;28;20034;-76
2023/08/12 02:32:37;;;;;;;12.18;5.22;;;;;;;;;;5034734;28;20021;-76
2023/08/12 02:35:03;;;;;;;12.07;5.25;;;;;;;;;;5034702;28;20432;-76
2023/08/12 02:37:29;;;;;;;7.50;5.80;;;;;;;;;;5034636;28;20025;-76
2023/08/12 02:39:55;;;;;;;12.00;5.13;;;;;;;;;;5034652;28;20021;-76
2023/08/12 02:42:21;;;;;;;8.88;4.68;;;;;;;;;;5034453;28;20392;-76
2023/08/12 02:44:47;;;;;;;13.73;4.88;;;;;;;;;;5033129;28;20116;-76
2023/08/12 02:47:13;;;;;;;6.95;4.40;;;;;;;;;;5033253;28;20026;-76
2023/08/12 02:49:39;;;;;;;11.43;5.10;;;;;;;;;;5034364;28;20026;-76
2023/08/12 02:52:05;;;;;;;10.48;4.97;;;;;;;;;;5034245;28;20408;-76
2023/08/12 02:54:31;;;;;;;9.00;4.65;;;;;;;;;;5034308;28;20026;-76
2023/08/12 02:56:57;;;;;;;10.02;5.00;;;;;;;;;;5034269;28;20025;-76
2023/08/12 02:59:25;;;;;;;9.20;5.28;;;;;;;;;;5034260;28;20038;-76
2023/08/12 03:01:51;;;;;;;8.35;4.93;;;;;;;;;;5034321;28;20040;-76
2023/08/12 03:04:17;;;;;;;9.02;5.18;;;;;;;;;;5034133;28;20025;-76
2023/08/12 03:06:43;;;;;;;12.60;5.60;;;;;;;;;;5034363;28;20025;-76
2023/08/12 03:09:09;;;;;;;10.05;5.45;;;;;;;;;;5034042;28;20033;-76
2023/08/12 03:11:35;;;;;;;11.05;5.60;;;;;;;;;;5033989;28;20105;-76
2023/08/12 03:14:01;;;;;;;11.93;5.30;;;;;;;;;;5033992;28;20025;-76
2023/08/12 03:16:27;;;;;;;11.70;5.75;;;;;;;;;;5033783;28;20071;-77
2023/08/12 03:18:53;;;;;;;10.38;5.60;;;;;;;;;;5034093;28;20025;-76
2023/08/12 03:21:19;;;;;;;10.55;5.90;;;;;;;;;;5033830;28;20099;-77
2023/08/12 03:23:45;;;;;;;10.88;6.22;;;;;;;;;;5033657;28;20065;-76
2023/08/12 03:26:11;;;;;;;10.18;6.13;;;;;;;;;;5033748;28;20044;-76
2023/08/12 03:28:37;;;;;;;11.70;5.82;;;;;;;;;;5032400;28;20481;-77
2023/08/12 03:31:03;;;;;;;10.40;6.15;;;;;;;;;;5033582;28;20472;-76
2023/08/12 03:33:29;;;;;;;14.32;6.20;;;;;;;;;;5033502;28;20071;-76
2023/08/12 03:35:55;;;;;;;10.98;5.75;;;;;;;;;;5033519;28;20026;-76
2023/08/12 03:38:21;;;;;;;10.38;6.00;;;;;;;;;;5033606;28;20453;-76
2023/08/12 03:40:47;;;;;;;11.48;6.57;;;;;;;;;;5033455;28;20026;-76
2023/08/12 03:43:13;;;;;;;14.20;6.38;;;;;;;;;;5033593;28;20104;-76
2023/08/12 03:45:43;;;;;;;14.95;7.18;;;;;;;;;;5033643;28;20036;-76
2023/08/12 03:48:10;;;;;;;10.75;6.40;;;;;;;;;;5033426;28;20025;-76
2023/08/12 03:50:40;;;;;;;10.13;6.63;;;;;;;;;;5033330;28;20021;-77
2023/08/12 03:53:06;;;;;;;12.10;6.25;;;;;;;;;;5033234;28;20550;-76
2023/08/12 03:55:32;;;;;;;11.10;5.88;;;;;;;;;;5033449;28;20021;-77
2023/08/12 03:57:59;;;;;;;10.45;6.25;;;;;;;;;;5032712;28;20123;-76
2023/08/12 04:00:25;;;;;;;12.07;6.57;;;;;;;;;;5033042;28;20037;-76
2023/08/12 04:02:51;;;;;;;9.75;6.30;;;;;;;;;;5032907;28;20026;-76
2023/08/12 04:05:17;;;;;;;12.75;6.95;;;;;;;;;;5032941;28;20053;-77
2023/08/12 04:07:43;;;;;;;13.55;5.93;;;;;;;;;;5032860;28;20076;-76
2023/08/12 04:10:09;;;;;;;12.05;6.20;;;;;;;;;;5032931;28;20048;-76
2023/08/12 04:12:35;;;;;;;12.52;6.10;;;;;;;;;;5031486;28;20056;-77
2023/08/12 04:15:04;;;;;;;13.23;5.97;;;;;;;;;;5032785;28;20026;-76
2023/08/12 04:17:30;;;;;;;16.40;6.80;;;;;;;;;;5032996;28;20703;-77
2023/08/12 04:19:56;;;;;;;14.10;5.72;;;;;;;;;;5032810;28;20028;-76
2023/08/12 04:22:22;;;;;;;10.43;6.13;;;;;;;;;;5032620;28;20112;-76
2023/08/12 04:24:49;;;;;;;12.65;6.00;;;;;;;;;;5032598;28;20112;-76
2023/08/12 04:27:16;;;;;;;10.02;5.82;;;;;;;;;;5032456;28;20026;-77
2023/08/12 04:29:42;;;;;;;12.82;6.28;;;;;;;;;;5031661;28;20115;-77
2023/08/12 04:32:08;;;;;;;10.43;6.18;;;;;;;;;;5032566;28;20091;-76
2023/08/12 04:34:34;;;;;;;11.60;6.05;;;;;;;;;;5032508;28;20025;-76
2023/08/12 04:37:00;;;;;;;11.13;7.05;;;;;;;;;;5032488;28;20029;-76
2023/08/12 04:39:27;;;;;;;12.65;6.70;;;;;;;;;;5032501;28;20075;-76
2023/08/12 04:41:53;;;;;;;14.35;6.22;;;;;;;;;;5032651;28;20364;-76
2023/08/12 04:44:19;;;;;;;12.20;6.38;;;;;;;;;;5032480;28;20112;-76
2023/08/12 04:46:45;;;;;;;14.15;7.10;;;;;;;;;;5032397;28;20021;-76
2023/08/12 04:49:11;;;;;;;12.30;6.60;;;;;;;;;;5032407;28;20448;-77
2023/08/12 04:51:37;;;;;;;15.57;6.10;;;;;;;;;;5032407;28;20028;-76
2023/08/12 04:54:03;;;;;;;12.05;6.57;;;;;;;;;;5032449;28;20026;-77
2023/08/12 04:56:29;;;;;;;12.25;6.75;;;;;;;;;;5032605;28;20026;-76
2023/08/12 04:58:55;;;;;;;14.93;6.43;;;;;;;;;;5032548;28;20030;-76
2023/08/12 05:01:21;;;;;;;11.30;6.65;;;;;;;;;;5032409;28;20025;-77
2023/08/12 05:03:47;;;;;;;14.65;7.30;;;;;;;;;;5032327;28;20043;-76
2023/08/12 05:06:13;;;;;;;15.60;7.28;;;;;;;;;;5032214;28;20026;-76
2023/08/12 05:08:39;;;;;;;13.15;6.90;;;;;;;;;;5032200;28;20025;-76
2023/08/12 05:11:06;;;;;;;11.43;6.10;;;;;;;;;;5034308;28;20338;-76
2023/08/12 05:13:32;;;;;;;12.65;7.32;;;;;;;;;;5036496;28;20084;-77
2023/08/12 05:15:58;;;;;;;12.85;6.50;;;;;;;;;;5036247;28;20484;-76
2023/08/12 05:18:24;;;;;;;15.93;6.88;;;;;;;;;;5036177;28;20057;-77
2023/08/12 05:20:51;;;;;;;12.88;7.28;;;;;;;;;;5036379;28;20053;-76
2023/08/12 05:23:17;;;;;;;14.20;7.05;;;;;;;;;;5035941;28;20041;-77
2023/08/12 05:25:43;;;;;;;12.60;7.22;;;;;;;;;;5035943;28;20100;-77
2023/08/12 05:28:09;;;;;;;14.52;7.30;;;;;;;;;;5035566;28;20057;-77
2023/08/12 05:30:36;;;;;;;14.80;7.35;;;;;;;;;;5036118;28;20108;-77
2023/08/12 05:33:02;;;;;;;11.27;6.97;;;;;;;;;;5048742;28;20024;-77
2023/08/12 05:35:28;;;;;;;13.43;7.80;;;;;;;;;;5056331;28;20059;-76
2023/08/12 05:37:54;;;;;;;12.38;7.07;;;;;;;;;;5056146;28;20056;-76
2023/08/12 05:40:20;;;;;;;14.35;8.10;;;;;;;;;;5055841;28;20103;-77
2023/08/12 05:42:46;;;;;;;12.20;7.75;;;;;;;;;;5056049;28;20040;-77
2023/08/12 05:45:12;;;;;;;15.82;7.60;;;;;;;;;;5055973;28;20021;-77
2023/08/12 05:47:38;;;;;;;14.73;8.07;;;;;;;;;;5046875;28;20028;-76
2023/08/12 05:50:06;;;;;;;13.02;7.78;;;;;;;;;;5056254;28;20364;-76
2023/08/12 05:52:33;;;;;;;15.98;8.63;;;;;;;;;;5055806;28;20021;-77
2023/08/12 05:54:59;;;;;;;13.48;8.30;;;;;;;;;;5055882;28;20379;-77
2023/08/12 05:57:25;;;;;;;15.30;8.52;;;;;;;;;;5055576;28;20104;-77
2023/08/12 05:59:51;;;;;;;16.17;8.18;;;;;;;;;;5055396;28;20439;-77
2023/08/12 06:02:18;;;;;;;12.60;8.23;;;;;;;;;;5055789;28;20040;-77
2023/08/12 06:04:44;;;;;;;19.27;8.48;;;;;;;;;;5055857;28;20021;-77
2023/08/12 06:07:10;;;;;;;15.50;8.40;;;;;;;;;;5055461;28;20543;-77
2023/08/12 06:09:36;;;;;;;17.15;8.95;;;;;;;;;;5056991;28;20484;-77
2023/08/12 06:12:02;;;;;;;17.10;9.30;;;;;;;;;;5056453;28;20032;-77
2023/08/12 06:14:29;;;;;;;17.42;8.85;;;;;;;;;;5055680;28;20029;-77
2023/08/12 06:16:55;;;;;;;13.52;8.30;;;;;;;;;;5054007;28;20067;-77
2023/08/12 06:19:21;;;;;;;14.45;9.27;;;;;;;;;;5055365;28;20021;-77
2023/08/12 06:21:47;;;;;;;14.68;9.77;;;;;;;;;;5054849;28;20025;-77
2023/08/12 06:24:13;;;;;;;18.17;9.68;;;;;;;;;;5054967;28;20028;-77
2023/08/12 06:26:39;;;;;;;16.17;9.73;;;;;;;;;;5053633;28;20052;-77
2023/08/12 06:29:05;;;;;;;15.60;9.07;;;;;;;;;;5053454;28;20128;-77
2023/08/12 06:31:31;;;;;;;19.10;9.85;;;;;;;;;;5055156;28;20025;-77
2023/08/12 06:33:57;;;;;;;16.33;9.48;;;;;;;;;;5055859;28;20070;-76
2023/08/12 06:36:23;;;;;;;17.48;9.82;;;;;;;;;;5056015;28;20025;-76
2023/08/12 06:38:49;;;;;;;15.00;9.68;;;;;;;;;;5055069;28;20025;-77
2023/08/12 06:41:15;;;;;;;15.45;9.95;;;;;;;;;;5054628;28;20036;-76
2023/08/12 06:43:41;;;;;;;15.02;10.57;;;;;;;;;;5055156;28;20028;-77
2023/08/12 06:46:07;;;;;;;16.70;10.45;;;;;;;;;;5055982;28;20048;-77
2023/08/12 06:48:33;;;;;;;16.90;10.52;;;;;;;;;;5054759;28;20032;-77
2023/08/12 06:50:59;;;;;;;14.13;10.23;;;;;;;;;;5054418;28;20029;-77
2023/08/12 06:53:26;;;;;;;17.88;10.55;;;;;;;;;;5054295;28;20410;-77
2023/08/12 06:55:52;;;;;;;15.68;9.80;;;;;;;;;;5054449;28;20025;-77
2023/08/12 06:58:19;;;;;;;14.57;9.98;;;;;;;;;;5055008;28;20032;-77
2023/08/12 07:00:45;;;;;;;20.33;11.23;;;;;;;;;;5055130;28;20035;-77
2023/08/12 07:03:11;;;;;;;14.55;10.32;;;;;;;;;;5055825;28;20055;-77
2023/08/12 07:05:37;;;;;;;15.95;10.00;;;;;;;;;;5055401;28;20313;-77
2023/08/12 07:08:03;;;;;;;16.58;10.95;;;;;;;;;;5055183;28;20021;-77
2023/08/12 07:10:29;;;;;;;18.45;10.98;;;;;;;;;;5054969;28;20029;-77
2023/08/12 07:12:55;;;;;;;17.83;11.20;;;;;;;;;;5053896;28;20021;-77
2023/08/12 07:15:21;;;;;;;18.80;10.88;;;;;;;;;;5055823;28;20029;-78
2023/08/12 07:17:47;;;;;;;18.27;11.75;;;;;;;;;;5055416;28;20017;-77
2023/08/12 07:20:16;;;;;;;17.33;11.85;;;;;;;;;;5055617;28;20099;-77
2023/08/12 07:22:42;;;;;;;18.17;11.68;;;;;;;;;;5056536;28;20118;-77
2023/08/12 07:25:09;;;;;;;18.45;11.73;;;;;;;;;;5054692;28;20029;-77
2023/08/12 07:27:35;;;;;;;18.42;12.45;;;;;;;;;;5054471;28;20037;-78
2023/08/12 07:30:01;;;;;;;18.67;12.13;;;;;;;;;;5054700;28;20041;-77
2023/08/12 07:32:33;;;;;;;19.45;12.77;;;;;;;;;;5054172;28;20036;-77
2023/08/12 07:34:59;;;;;;;20.08;12.25;;;;;;;;;;5053598;28;20494;-77
2023/08/12 07:37:26;;;;;;;19.45;12.80;;;;;;;;;;5053604;28;20064;-77
2023/08/12 07:39:52;;;;;;;22.75;12.90;;;;;;;;;;5053330;28;20017;-77
2023/08/12 07:42:19;;;;;;;22.10;12.85;;;;;;;;;;5054313;28;20045;-77
2023/08/12 07:44:45;;;;;;;20.63;12.95;;;;;;;;;;5053646;28;20084;-77
2023/08/12 07:47:11;;;;;;;20.17;12.30;;;;;;;;;;5035668;28;20033;-77
2023/08/12 07:49:37;;;;;;;20.85;13.27;;;;;;;;;;5055089;28;20085;-77
2023/08/12 07:52:03;;;;;;;22.58;13.48;;;;;;;;;;5056474;28;20089;-77
2023/08/12 07:54:29;;;;;;;18.75;11.60;;;;;;;;;;5055839;28;20029;-77
2023/08/12 07:56:55;;;;;;;20.85;12.80;;;;;;;;;;5055241;28;20380;-77
2023/08/12 07:59:21;;;;;;;18.27;12.18;;;;;;;;;;5054657;28;20033;-77
2023/08/12 08:01:47;;;;;;;19.77;13.50;;;;;;;;;;5054598;28;20040;-77
2023/08/12 08:04:13;;;;;;;20.20;12.15;;;;;;;;;;5054571;28;20092;-77
2023/08/12 08:06:39;;;;;;;18.27;12.63;;;;;;;;;;5054610;28;20047;-77
2023/08/12 08:09:06;;;;;;;18.77;12.57;;;;;;;;;;5054772;28;20357;-77
2023/08/12 08:11:32;;;;;;;18.70;12.57;;;;;;;;;;5054295;28;20010;-78
2023/08/12 08:13:58;;;;;;;22.25;12.63;;;;;;;;;;5054169;28;20029;-77
2023/08/12 08:16:25;;;;;;;21.73;13.60;;;;;;;;;;5054287;28;20074;-77
2023/08/12 08:18:51;;;;;;;17.75;12.95;;;;;;;;;;5054262;28;20028;-77
2023/08/12 08:21:17;;;;;;;20.55;13.20;;;;;;;;;;5054509;28;20095;-78
2023/08/12 08:23:43;;;;;;;23.98;13.38;;;;;;;;;;5053453;28;20508;-78
2023/08/12 08:26:09;;;;;;;16.58;12.23;;;;;;;;;;5051499;28;20135;-77
2023/08/12 08:28:35;;;;;;;23.67;13.85;;;;;;;;;;5051943;28;20575;-78
2023/08/12 08:31:01;;;;;;;22.02;13.77;;;;;;;;;;5052433;28;20108;-77
2023/08/12 08:33:27;;;;;;;16.10;13.15;;;;;;;;;;5052518;28;20023;-77
2023/08/12 08:35:54;;;;;;;29.73;15.07;;;;;;;;;;5052389;28;20680;-77
2023/08/12 08:38:20;;;;;;;18.83;13.43;;;;;;;;;;5052567;28;20033;-77
2023/08/12 08:40:46;;;;;;;22.25;13.85;;;;;;;;;;5052316;28;20082;-77
2023/08/12 08:43:15;;;;;;;20.10;14.63;;;;;;;;;;5049123;28;20028;-78
2023/08/12 08:45:42;;;;;;;23.52;15.32;;;;;;;;;;5058982;28;20016;-77
2023/08/12 08:48:14;;;;;;;20.13;14.45;;;;;;;;;;5072714;28;20459;-77
2023/08/12 08:50:42;;;;;;;21.73;13.55;;;;;;;;;;5072686;28;20032;-77
2023/08/12 08:53:08;;;;;;;22.92;14.23;;;;;;;;;;5072428;28;20456;-77
2023/08/12 08:55:34;;;;;;;21.23;15.13;;;;;;;;;;5062269;28;20024;-77
2023/08/12 08:58:00;;;;;;;20.73;14.63;;;;;;;;;;5047951;28;20498;-77
2023/08/12 09:00:28;;;;;;;22.23;15.75;;;;;;;;;;5052664;28;20025;-77
2023/08/12 09:02:54;;;;;;;23.10;15.02;;;;;;;;;;5052543;28;20104;-78
2023/08/12 09:05:21;;;;;;;24.98;15.93;;;;;;;;;;5052835;28;20025;-78
2023/08/12 09:07:48;;;;;;;23.02;15.82;;;;;;;;;;5071922;28;20017;-77
2023/08/12 09:10:13;;;;;;;19.33;13.57;;;;;;;;;;5072547;28;20036;-78
2023/08/12 09:12:40;;;;;;;11.50;8.15;;;;;;;;;;5072669;28;20036;-78
2023/08/12 09:15:06;;;;;;;12.07;6.40;;;;;;;;;;5062838;28;20427;-78
2023/08/12 09:17:39;;;;;;;8.77;3.70;;;;;;;;;;5052674;28;20096;-78
2023/08/12 09:20:11;;;;;;;6.65;3.28;;;;;;;;;;5047714;28;20086;-78
2023/08/12 09:22:37;;;;;;;7.18;2.90;;;;;;;;;;5032680;28;20087;-78
2023/08/12 09:25:04;;;;;;;6.80;2.63;;;;;;;;;;5032771;28;20037;-78
2023/08/12 09:27:33;;;;;;;5.40;2.30;;;;;;;;;;5042815;28;20025;-77
2023/08/12 09:29:59;;;;;;;4.18;2.10;;;;;;;;;;5054336;28;20060;-78
2023/08/12 09:32:25;;;;;;;3.67;1.42;;;;;;;;;;5054168;28;20332;-78
2023/08/12 09:34:52;;;;;;;3.80;1.25;;;;;;;;;;5052553;28;20032;-78
2023/08/12 09:37:19;;;;;;;4.95;1.92;;;;;;;;;;5052489;28;20102;-78
2023/08/12 09:39:45;;;;;;;6.30;1.33;;;;;;;;;;5047036;28;20029;-78
2023/08/12 09:42:12;;;;;;;9.85;1.50;;;;;;;;;;5052142;28;20092;-77
2023/08/12 09:44:38;;;;;;;7.22;1.58;;;;;;;;;;5051876;28;20094;-78
2023/08/12 09:47:05;;;;;;;5.55;1.50;;;;;;;;;;5036992;28;20385;-78
2023/08/12 09:49:31;;;;;;;6.35;1.65;;;;;;;;;;5042125;28;20471;-76
2023/08/12 09:51:57;;;;;;;5.90;1.40;;;;;;;;;;5051527;28;20033;-75
2023/08/12 09:54:26;;;;;;;5.03;1.42;;;;;;;;;;5039764;28;20052;-75
2023/08/12 09:56:56;;;;;;;4.53;1.40;;;;;;;;;;5044757;28;20033;-75
2023/08/12 09:59:23;;;;;;;5.45;1.73;;;;;;;;;;5035460;28;20025;-76
2023/08/12 10:01:50;;;;;;;4.30;1.50;;;;;;;;;;5054040;28;20375;-76
2023/08/12 10:04:18;;;;;;;4.75;1.60;;;;;;;;;;5055133;28;20049;-76
2023/08/12 10:06:44;;;;;;;6.00;1.80;;;;;;;;;;5055283;28;20021;-75
2023/08/12 10:09:11;;;;;;;4.32;2.10;;;;;;;;;;5040736;28;20033;-76
2023/08/12 10:11:38;;;;;;;4.10;1.60;;;;;;;;;;5047094;28;20022;-75
2023/08/12 10:14:04;;;;;;;6.38;1.70;;;;;;;;;;5052895;28;20025;-75
2023/08/12 10:16:30;;;;;;;6.50;1.90;;;;;;;;;;5054888;28;20074;-76
2023/08/12 10:18:59;;;;;;;5.72;1.98;;;;;;;;;;5043071;28;20068;-76
2023/08/12 10:21:25;;;;;;;6.45;2.17;;;;;;;;;;5035177;28;20079;-75
2023/08/12 10:23:51;;;;;;;6.53;1.60;;;;;;;;;;5034810;28;20029;-76
2023/08/12 10:26:18;;;;;;;6.97;2.38;;;;;;;;;;5034778;28;20018;-76
2023/08/12 10:28:49;;;;;;;6.85;2.60;;;;;;;;;;5034359;28;20435;-76
2023/08/12 10:31:15;;;;;;;;;;;;;;;;;;5034957;28;20057;-76
2023/08/12 10:33:41;;;;;;;6.70;2.65;;;;;;;;;;5035298;28;19959;-76
2023/08/12 10:36:08;;;;;;;7.43;2.38;;;;;;;;;;5054531;28;20384;-76
2023/08/12 10:38:34;;;;;;;7.55;2.00;;;;;;;;;;5054412;28;20551;-77
2023/08/12 10:41:19;;;;;;;6.88;2.60;;;;;;;;;;5054277;28;20036;-77
2023/08/12 10:43:57;;;;;;;5.63;2.28;;;;;;;;;;5054391;28;20028;-77
2023/08/12 10:46:24;;;;;;;4.93;2.20;;;;;;;;;;5042596;28;20076;-77
2023/08/12 10:48:57;;;;;;;7.13;2.20;;;;;;;;;;5053289;28;20027;-77
2023/08/12 10:51:42;;;;;;;8.20;2.30;;;;;;;;;;5054332;28;20554;-77
2023/08/12 10:54:18;;;;;;;6.80;2.40;;;;;;;;;;5054123;28;20025;-77
2023/08/12 10:57:14;;;;;;;9.93;2.45;;;;;;;;;;5054223;28;20025;-77
2023/08/12 10:59:46;;;;;;;5.38;1.80;;;;;;;;;;5048872;28;20041;-77
2023/08/12 11:02:40;;;;;;;8.85;2.30;;;;;;;;;;5034211;28;20038;-77
2023/08/12 11:05:09;;;;;;;6.32;1.80;;;;;;;;;;5034419;28;20049;-77
2023/08/12 11:07:54;;;;;;;5.95;1.90;;;;;;;;;;5033365;28;20477;-77
2023/08/12 11:10:24;;;;;;;6.60;1.90;;;;;;;;;;5042434;28;20488;-77
2023/08/12 11:12:55;;;;;;;3.08;1.60;;;;;;;;;;5053975;28;20407;-77
2023/08/12 11:15:41;;;;;;;4.40;1.83;;;;;;;;;;5054197;28;20451;-77
2023/08/12 11:18:08;;;;;;;5.18;1.70;;;;;;;;;;5053789;28;20055;-77
2023/08/12 11:20:35;;;;;;;3.80;1.80;;;;;;;;;;5053823;28;20027;-77
2023/08/12 11:23:03;;;;;;;6.22;1.83;;;;;;;;;;5053454;28;20024;-77
2023/08/12 11:25:30;;;;;;;4.32;1.98;;;;;;;;;;5053826;28;20066;-77
2023/08/12 11:27:56;;;;;;;5.00;2.33;;;;;;;;;;5053669;28;20060;-77
2023/08/12 11:30:22;;;;;;;6.75;2.33;;;;;;;;;;5052485;28;20568;-77
2023/08/12 11:32:52;;;;;;;6.45;2.28;;;;;;;;;;5053412;28;20021;-77
2023/08/12 11:35:19;;;;;;;7.07;2.50;;;;;;;;;;5053639;28;20082;-77
2023/08/12 11:37:46;;;;;;;7.57;2.55;;;;;;;;;;5053555;28;20045;-77
2023/08/12 11:40:14;;;;;;;5.50;2.35;;;;;;;;;;5053433;28;20021;-77
2023/08/12 11:42:41;;;;;;;5.82;2.40;;;;;;;;;;5053500;28;20029;-77
2023/08/12 11:45:08;;;;;;;6.03;2.60;;;;;;;;;;5053342;28;20166;-77
2023/08/12 11:47:34;;;;;;;6.82;2.58;;;;;;;;;;5053235;28;20017;-77
2023/08/12 11:50:03;;;;;;;5.72;2.70;;;;;;;;;;5053456;28;20033;-77
2023/08/12 11:52:29;;;;;;;8.38;2.70;;;;;;;;;;5054011;28;20356;-76
2023/08/12 11:54:56;;;;;;;9.40;2.90;;;;;;;;;;5053377;28;20017;-77
2023/08/12 11:57:23;;;;;;;5.82;2.30;;;;;;;;;;5053470;28;20028;-77
2023/08/12 11:59:49;;;;;;;9.88;2.78;;;;;;;;;;5049543;28;20419;-78
2023/08/12 12:02:15;;;;;;;6.07;2.15;;;;;;;;;;5036325;28;20034;-78
2023/08/12 12:04:45;;;;;;;6.35;2.50;;;;;;;;;;5039442;28;20063;-79
2023/08/12 12:07:18;;;;;;;7.93;2.55;;;;;;;;;;5056378;28;20029;-78
2023/08/12 12:09:44;;;;;;;6.80;2.50;;;;;;;;;;5056389;28;20546;-78
2023/08/12 12:12:10;;;;;;;8.35;2.45;;;;;;;;;;5056324;28;20025;-78
2023/08/12 12:14:36;;;;;;;8.40;2.80;;;;;;;;;;5035185;28;20456;-78
2023/08/12 12:17:07;;;;;;;5.93;2.25;;;;;;;;;;5037615;28;20025;-79
2023/08/12 12:19:33;;;;;;;7.28;2.40;;;;;;;;;;5054456;28;20056;-78
2023/08/12 12:22:03;;;;;;;10.25;2.50;;;;;;;;;;5054303;28;20036;-78
2023/08/12 12:24:29;;;;;;;9.52;2.42;;;;;;;;;;5053140;28;20478;-78
2023/08/12 12:26:56;;;;;;;6.88;2.50;;;;;;;;;;5053100;28;20020;-77
2023/08/12 12:29:23;;;;;;;9.38;3.00;;;;;;;;;;5051939;28;20060;-78
2023/08/12 12:31:49;;;;;;;5.97;2.10;;;;;;;;;;5052569;28;20025;-77
2023/08/12 12:34:15;;;;;;;11.70;2.72;;;;;;;;;;5052778;28;20021;-78
2023/08/12 12:36:41;;;;;;;6.45;2.38;;;;;;;;;;5052658;28;20033;-78
2023/08/12 12:39:08;;;;;;;8.88;2.55;;;;;;;;;;5052517;28;20036;-77
2023/08/12 12:41:34;;;;;;;8.48;2.30;;;;;;;;;;5051066;28;20036;-77
2023/08/12 12:44:02;;;;;;;7.75;2.20;;;;;;;;;;5052175;28;20041;-77
2023/08/12 12:46:28;;;;;;;7.65;2.08;;;;;;;;;;5051844;28;20017;-77
2023/08/12 12:48:54;;;;;;;9.05;2.10;;;;;;;;;;5052219;28;20031;-78
2023/08/12 12:51:20;;;;;;;9.57;2.00;;;;;;;;;;5052327;28;20466;-77
2023/08/12 12:53:46;;;;;;;7.90;2.20;;;;;;;;;;5052395;28;20021;-77
2023/08/12 12:56:12;;;;;;;5.82;1.65;;;;;;;;;;5052193;28;20029;-77
2023/08/12 12:58:39;;;;;;;10.10;1.85;;;;;;;;;;5052194;28;20044;-77
2023/08/12 13:01:06;;;;;;;7.75;2.08;;;;;;;;;;5052518;28;20052;-77
2023/08/12 13:03:32;;;;;;;7.07;2.05;;;;;;;;;;5052234;28;20041;-77
2023/08/12 13:05:58;;;;;;;7.68;2.03;;;;;;;;;;5052774;28;20027;-77
2023/08/12 13:08:24;;;;;;;5.75;1.55;;;;;;;;;;5052152;28;20025;-77
2023/08/12 13:10:51;;;;;;;10.38;1.92;;;;;;;;;;5052172;28;20029;-78
2023/08/12 13:13:18;;;;;;;7.20;2.20;;;;;;;;;;5052220;28;20199;-78
2023/08/12 13:15:44;;;;;;;9.35;2.28;;;;;;;;;;5052070;28;20115;-78
2023/08/12 13:18:11;;;;;;;10.15;2.10;;;;;;;;;;5052138;28;20481;-77
2023/08/12 13:20:37;;;;;;;8.57;2.20;;;;;;;;;;5052077;28;20495;-78
2023/08/12 13:23:03;;;;;;;8.73;2.08;;;;;;;;;;5052123;28;20051;-78
2023/08/12 13:25:30;;;;;;;9.63;2.30;;;;;;;;;;5052042;28;20033;-77
2023/08/12 13:27:57;;;;;;;8.80;2.20;;;;;;;;;;5051961;28;20055;-78
2023/08/12 13:30:23;;;;;;;7.57;2.17;;;;;;;;;;5050954;28;20063;-78
2023/08/12 13:32:49;;;;;;;10.13;2.63;;;;;;;;;;5053901;28;20029;-78
2023/08/12 13:35:15;;;;;;;7.30;2.05;;;;;;;;;;5055898;28;20515;-78
2023/08/12 13:37:41;;;;;;;8.80;2.47;;;;;;;;;;5035938;28;20095;-78
2023/08/12 13:40:09;;;;;;;8.90;1.98;;;;;;;;;;5036172;28;20029;-77
2023/08/12 13:42:34;;;;;;;9.15;2.30;;;;;;;;;;5055600;28;20036;-77
2023/08/12 13:45:00;;;;;;;9.10;2.50;;;;;;;;;;5055710;28;20380;-77
2023/08/12 13:47:26;;;;;;;9.30;2.22;;;;;;;;;;5055633;28;20017;-78
2023/08/12 13:49:52;;;;;;;10.05;2.50;;;;;;;;;;5055606;28;20029;-77
2023/08/12 13:52:18;;;;;;;8.82;2.15;;;;;;;;;;5055535;28;20033;-77
2023/08/12 13:54:44;;;;;;;7.43;1.90;;;;;;;;;;5055427;28;20029;-77
2023/08/12 13:57:11;;;;;;;11.18;2.50;;;;;;;;;;5055429;28;20021;-77
2023/08/12 13:59:37;;;;;;;8.63;1.75;;;;;;;;;;5055606;28;20025;-77
2023/08/12 14:02:03;;;;;;;10.00;2.30;;;;;;;;;;5055571;28;20029;-77
2023/08/12 14:04:29;;;;;;;8.43;1.85;;;;;;;;;;5055207;28;20032;-77
2023/08/12 14:06:55;;;;;;;9.45;2.40;;;;;;;;;;5055268;28;20037;-77
2023/08/12 14:09:21;;;;;;;8.80;2.28;;;;;;;;;;5054928;28;20102;-77
2023/08/12 14:11:48;;;;;;;9.60;2.35;;;;;;;;;;5055426;28;20025;-77
2023/08/12 14:14:13;;;;;;;6.93;2.20;;;;;;;;;;5055318;28;20691;-77
2023/08/12 14:16:41;;;;;;;10.85;2.45;;;;;;;;;;5054985;28;20100;-77
2023/08/12 14:19:07;;;;;;;11.40;2.85;;;;;;;;;;5055344;28;20025;-77
2023/08/12 14:21:33;;;;;;;10.10;2.40;;;;;;;;;;5055816;28;20367;-77
2023/08/12 14:23:59;;;;;;;8.88;2.38;;;;;;;;;;5054690;28;20506;-78
2023/08/12 14:26:25;;;;;;;8.80;2.45;;;;;;;;;;5056145;28;20452;-78
2023/08/12 14:28:51;;;;;;;11.75;2.58;;;;;;;;;;5055375;28;20052;-78
2023/08/12 14:31:17;;;;;;;8.77;2.63;;;;;;;;;;5055692;28;20495;-78